Portada
METAR-TAF:

METAR-TAF

Aeroports :

Gibraltar, Gibraltar

latitud: 36-09N, longitud: 005-21W, altitud: 5 m

Observació

L'informe es va fer fa 1 hora i 22 minuts, a les 14:50 UTC
Vent 14 kt del Est
Temperatura 22°C
Humitat 73%
Pressió 1013 hPa
Visibilitat 10 km o més
Escasses núvols a una alçada de 1500 ft
Cel ennuvolat a una alçada de 20000 ft

METAR: LXGB 301450Z 09014KT 9999 FEW015 BKN200 22/17 Q1013 NOSIG RMK BLU BLU

Hora: 18:12 (16:12 UTC)

Pronòstic

L'informe es va fer fa 3 hores i 6 minuts, a les 13:06 UTC
Pronòstic vàlid del 30 a les 15 UTC al 30 a les 23 UTC
Vent 15 kt del Est amb ràfegues de 25 kt
Visibilitat 10 km o més
Escasses núvols a una alçada de 1400 ft
Probabilitat 30% :
Temporalment
l' 30 a les 15 UTC al 30 a les 21 UTC
Núvols disperses a una alçada de 2000 ft
Evolucionant progressivament
l' 30 a les 16 UTC al 30 a les 19 UTC
Vent 12 kt del Est

TAF: LXGB 301306Z 3015/3023 09015G25KT 9999 FEW014 PROB30 TEMPO 3015/3021 SCT020 BECMG 3016/3019 08012KT

Observacions i pronòstics meteorològics de més de 4000 aeroports (METAR i TAF).

Les estacions disponibles són els punts grocs i vermells al mapa.

Posi el ratolí al punt desitjat per veure el nom de l'estació.

Feu clic per veure les observacions i els pronòstics meteorològics.

Per canviar el mapa: feu clic els botons verds amb una creu de color negre per apropar; al botó verd amb un guió per allunyar la imatge; o en les fletxes verdes per a mapes adjacents.


METAR-TAF: